Ana Sayfa
METAR-TAF:

METAR-TAF

Havaalanları :

Amasya Merzifon Havalimanı

Merzifon, Türkiye

Enlem: 40-51N, Boylam: 035-35E, yükseklik: 545 m

Güncel hava durumu gözlemi

Rapor saat 21:50 UTC de 22 dakika önce yapıldı.
Rüzgar kuzeydoğudan 7 kt
Sıcaklık 8°C
Nem 81%
Basınç 1025 hPa
Görüş mesafesi 10 km veya daha fazla
4000 ft yükseklikte parçalı bulutlu

METAR: LTAP 122150Z 04007KT 9999 SCT040 08/05 Q1025 NOSIG RMK RWY23 03008KT

Saat: 01:12 (22:12 UTC)

Tahmin

Rapor saat 16:40 UTC de 5 saat ve 32 dakika önce yapıldı.
Ayın 12'si saat 18 UTC'den ayın 13'si saat 18 UTC'ye kadar geçerli Tahmin
Rüzgar kuzey/kuzeydoğudan 9 kt
Görüş mesafesi 10 km veya daha fazla
3500 ft yükseklikte parçalı bulutlu
9000 ft yükseklikte parçalı çok bulutlu
Olasılık 40%
ayın 13'si saat 03 UTC'den ayın 13'si saat 07 UTC'ye kadar
1300 ft yükseklikte parçalı çok bulutlu

TAF: LTAP 121640Z 1218/1318 02009KT 9999 SCT035 BKN090 PROB40 1303/1307 BKN013

4.000'den fazla havaalanı için hava durumu gözlemleri ve tahminleri (METAR ve TAF raporları).

Kullanılabilir istasyonlar harita üzerinde sarı ve kırmızı noktalarla gösterilir.

İstasyonun adını görmek için fareyi noktanın üzerinde gezdirin.

Sonrasında hava gözlem ve tahminlerini görmek için tıklayın.

Haritayı değiştirmek için: yaklaştırmak için siyah artı işaretli yeşil düğmeye ve uzaklaştırmak için de eksi işaretli düğmeye hızla tıklayın; bitişik haritalar için yeşil okları kullanın.


METAR-TAF: